Time;durP1;ratioP1;P1;durP2;ratioP2;P2;SDS_P1;SDS_P2;PMS_P1;PMS_P2;Temp;Humidity;BMP_temperature;BMP_pressure;BME280_temperature;BME280_humidity;BME280_pressure;Samples;Min_cycle;Max_cycle;Signal;HPM_P1;HPM_P2
2022/05/19 00:02:22;;;;;;;0.50;0.50;;;20.40;99.90;;;;;;5056835;28;20912;-81
2022/05/19 00:04:47;;;;;;;0.50;0.50;;;20.40;99.90;;;;;;5056158;28;20185;-81
2022/05/19 00:07:15;;;;;;;0.77;0.77;;;20.30;99.90;;;;;;5039943;28;20255;-81
2022/05/19 00:09:41;;;;;;;1.00;0.57;;;20.30;99.90;;;;;;5056078;28;20201;-81
2022/05/19 00:12:11;;;;;;;0.57;0.57;;;20.30;99.90;;;;;;5039421;28;20213;-81
2022/05/19 00:14:37;;;;;;;1.27;0.70;;;20.20;99.90;;;;;;5055460;28;20560;-81
2022/05/19 00:17:04;;;;;;;0.50;0.50;;;20.20;99.90;;;;;;5039018;28;20678;-81
2022/05/19 00:19:29;;;;;;;1.00;0.73;;;20.00;99.90;;;;;;5038752;28;20555;-81
2022/05/19 00:21:55;;;;;;;1.97;1.83;;;19.90;99.90;;;;;;5058129;28;20256;-81
2022/05/19 00:24:22;;;;;;;0.37;0.37;;;19.80;99.90;;;;;;5039617;28;20173;-81
2022/05/19 00:26:47;;;;;;;0.60;0.60;;;19.80;99.90;;;;;;5036414;28;20197;-81
2022/05/19 00:29:13;;;;;;;0.70;0.70;;;19.80;99.90;;;;;;5055822;28;20188;-81
2022/05/19 00:31:39;;;;;;;1.10;1.00;;;19.80;99.90;;;;;;5038003;28;20188;-81
2022/05/19 00:34:05;;;;;;;1.10;1.00;;;19.70;99.90;;;;;;5055401;28;20674;-80
2022/05/19 00:36:31;;;;;;;0.40;0.40;;;19.60;99.90;;;;;;5056201;28;20343;-82
2022/05/19 00:38:56;;;;;;;0.93;0.90;;;19.50;99.90;;;;;;5037404;28;20275;-82
2022/05/19 00:41:22;;;;;;;0.70;0.70;;;19.50;99.90;;;;;;5055938;28;20639;-82
2022/05/19 00:44:00;;;;;;;3.90;0.90;;;19.40;99.90;;;;;;5037518;28;20201;-82
2022/05/19 00:46:34;;;;;;;0.40;0.40;;;19.40;99.90;;;;;;5038248;28;20209;-81
2022/05/19 00:49:05;;;;;;;0.40;0.30;;;19.30;99.90;;;;;;5055428;28;20183;-81
2022/05/19 00:51:35;;;;;;;0.70;0.70;;;19.30;99.90;;;;;;5056256;28;20224;-81
2022/05/19 00:54:02;;;;;;;0.60;0.60;;;19.40;99.90;;;;;;5038131;28;20182;-81
2022/05/19 00:56:32;;;;;;;0.60;0.60;;;19.30;99.90;;;;;;5038386;28;20608;-82
2022/05/19 00:59:10;;;;;;;0.63;0.63;;;19.30;99.90;;;;;;5056184;28;20823;-82
2022/05/19 01:01:38;;;;;;;0.37;0.37;;;19.30;99.90;;;;;;5036515;28;20673;-81
2022/05/19 01:04:21;;;;;;;0.47;0.47;;;19.10;99.90;;;;;;5055632;28;20191;-81
2022/05/19 01:06:51;;;;;;;0.40;0.40;;;19.10;99.90;;;;;;5056683;28;20218;-82
2022/05/19 01:09:17;;;;;;;0.40;0.40;;;19.10;99.90;;;;;;5036333;28;20198;-81
2022/05/19 01:11:44;;;;;;;0.73;0.70;;;19.10;99.90;;;;;;5054862;28;20186;-82
2022/05/19 01:14:09;;;;;;;0.50;0.50;;;19.00;99.90;;;;;;5066258;28;20190;-81
2022/05/19 01:16:37;;;;;;;0.60;0.50;;;19.10;99.90;;;;;;5036042;28;20257;-81
2022/05/19 01:19:19;;;;;;;0.70;0.67;;;19.00;99.90;;;;;;5037100;28;20201;-81
2022/05/19 01:21:46;;;;;;;0.57;0.50;;;19.00;99.90;;;;;;5035402;28;20188;-82
2022/05/19 01:24:19;;;;;;;1.17;1.03;;;19.10;99.90;;;;;;5054901;28;20264;-81
2022/05/19 01:26:50;;;;;;;0.50;0.50;;;18.90;99.90;;;;;;5037729;28;20306;-81
2022/05/19 01:29:19;;;;;;;0.53;0.53;;;19.00;99.90;;;;;;5068983;28;20178;-81
2022/05/19 01:31:48;;;;;;;0.73;0.63;;;19.00;99.90;;;;;;5055622;28;20596;-81
2022/05/19 01:34:15;;;;;;;0.57;0.50;;;18.90;99.90;;;;;;5052688;28;20632;-82
2022/05/19 01:36:41;;;;;;;0.50;0.50;;;19.00;99.90;;;;;;5068966;28;20220;-81
2022/05/19 01:39:10;;;;;;;0.50;0.50;;;19.00;99.90;;;;;;5054140;28;20182;-81
2022/05/19 01:41:57;;;;;;;1.13;0.67;;;19.20;99.90;;;;;;5055601;28;20188;-81
2022/05/19 01:44:41;;;;;;;0.50;0.50;;;19.30;99.90;;;;;;5035233;28;20192;-81
2022/05/19 01:47:20;;;;;;;0.70;0.70;;;19.30;99.90;;;;;;5036191;28;20670;-81
2022/05/19 01:50:02;;;;;;;1.20;1.00;;;19.20;99.90;;;;;;5053084;28;20583;-81
2022/05/19 01:52:46;;;;;;;0.33;0.33;;;19.10;99.90;;;;;;5035299;28;20213;-81
2022/05/19 01:55:37;;;;;;;0.60;0.60;;;19.10;99.90;;;;;;5052748;28;20205;-81
2022/05/19 01:58:16;;;;;;;0.60;0.60;;;19.00;99.90;;;;;;5035504;28;20668;-81
2022/05/19 02:00:43;;;;;;;0.73;0.70;;;18.90;99.90;;;;;;5055623;28;20635;-82
2022/05/19 02:03:30;;;;;;;1.07;0.60;;;18.90;99.90;;;;;;5054440;28;20185;-82
2022/05/19 02:06:09;;;;;;;0.73;0.63;;;18.80;99.90;;;;;;5035199;28;20215;-81
2022/05/19 02:08:54;;;;;;;1.03;0.50;;;18.70;99.90;;;;;;5036172;28;20204;-81
2022/05/19 02:11:29;;;;;;;0.33;0.33;;;18.70;99.90;;;;;;5035934;28;21011;-81
2022/05/19 02:13:57;;;;;;;0.70;0.70;;;18.70;99.90;;;;;;5054280;28;20182;-82
2022/05/19 02:16:23;;;;;;;0.60;0.60;;;18.60;99.90;;;;;;5037290;28;20220;-81
2022/05/19 02:18:50;;;;;;;0.53;0.53;;;18.50;99.90;;;;;;5036770;28;20918;-81
2022/05/19 02:21:18;;;;;;;0.63;0.63;;;18.50;99.90;;;;;;5036957;28;20190;-82
2022/05/19 02:23:45;;;;;;;0.70;0.70;;;18.60;99.90;;;;;;5051445;28;20199;-81
2022/05/19 02:26:11;;;;;;;0.93;0.93;;;18.60;99.90;;;;;;5035387;28;20593;-81
2022/05/19 02:28:45;;;;;;;0.50;0.50;;;18.60;99.90;;;;;;5037376;28;20190;-82
2022/05/19 02:31:11;;;;;;;0.40;0.37;;;18.60;99.90;;;;;;5054198;28;20263;-81
2022/05/19 02:33:37;;;;;;;0.53;0.53;;;18.60;99.90;;;;;;5037116;28;20668;-81
2022/05/19 02:36:04;;;;;;;0.40;0.40;;;18.60;99.90;;;;;;5056631;28;20760;-82
2022/05/19 02:38:30;;;;;;;0.30;0.30;;;18.60;99.90;;;;;;5040595;28;20238;-82
2022/05/19 02:40:55;;;;;;;1.30;0.60;;;18.60;99.90;;;;;;5039301;28;20193;-81
2022/05/19 02:43:21;;;;;;;0.60;0.60;;;18.60;99.90;;;;;;5039741;28;20185;-81
2022/05/19 02:45:47;;;;;;;0.50;0.50;;;18.60;99.90;;;;;;5040944;28;20211;-82
2022/05/19 02:48:14;;;;;;;0.30;0.30;;;18.60;99.90;;;;;;5058112;28;20190;-81
2022/05/19 02:50:42;;;;;;;0.67;0.63;;;18.60;99.90;;;;;;5037741;28;20188;-82
2022/05/19 02:53:08;;;;;;;1.00;0.70;;;18.60;99.90;;;;;;5058690;28;20189;-81
2022/05/19 02:55:34;;;;;;;0.20;0.20;;;18.40;99.90;;;;;;5058208;28;20226;-81
2022/05/19 02:58:00;;;;;;;1.33;1.23;;;18.20;99.90;;;;;;5040355;28;20204;-81
2022/05/19 03:00:26;;;;;;;0.83;0.83;;;18.10;99.90;;;;;;5059422;28;20186;-81
2022/05/19 03:02:53;;;;;;;2.33;0.63;;;18.10;99.90;;;;;;5040134;28;20194;-81
2022/05/19 03:05:22;;;;;;;0.60;0.60;;;18.20;99.90;;;;;;5058332;28;20202;-81
2022/05/19 03:07:48;;;;;;;0.80;0.40;;;18.20;99.90;;;;;;5039076;28;20196;-81
2022/05/19 03:10:15;;;;;;;0.50;0.50;;;18.20;99.90;;;;;;5040079;28;20193;-82
2022/05/19 03:12:40;;;;;;;0.50;0.50;;;18.30;99.90;;;;;;5054244;28;20272;-81
2022/05/19 03:15:08;;;;;;;0.30;0.30;;;18.30;99.90;;;;;;5039426;28;20610;-81
2022/05/19 03:17:33;;;;;;;0.87;0.50;;;18.40;99.90;;;;;;5056455;28;20271;-81
2022/05/19 03:19:59;;;;;;;0.63;0.50;;;18.40;99.90;;;;;;5056727;28;20266;-81
2022/05/19 03:22:25;;;;;;;1.43;1.10;;;18.20;99.90;;;;;;5056210;28;20561;-81
2022/05/19 03:24:51;;;;;;;0.83;0.67;;;18.10;99.90;;;;;;5039396;28;20239;-81
2022/05/19 03:27:20;;;;;;;0.50;0.40;;;18.00;99.90;;;;;;5056515;28;20206;-81
2022/05/19 03:29:46;;;;;;;0.77;0.77;;;17.90;99.90;;;;;;5039152;28;20201;-81
2022/05/19 03:32:11;;;;;;;0.70;0.70;;;17.90;99.90;;;;;;5055011;28;20193;-81
2022/05/19 03:34:37;;;;;;;0.63;0.63;;;17.90;99.90;;;;;;5055638;28;20272;-81
2022/05/19 03:37:04;;;;;;;0.57;0.57;;;17.90;99.90;;;;;;5039764;28;20236;-81
2022/05/19 03:39:30;;;;;;;2.17;0.70;;;18.00;99.90;;;;;;5040757;28;20181;-81
2022/05/19 03:41:55;;;;;;;0.40;0.40;;;18.00;99.90;;;;;;5055415;28;20195;-81
2022/05/19 03:44:21;;;;;;;2.27;1.30;;;18.10;99.90;;;;;;5055758;28;20190;-81
2022/05/19 03:46:46;;;;;;;0.50;0.50;;;18.10;99.90;;;;;;5038810;28;20285;-82
2022/05/19 03:49:13;;;;;;;0.60;0.60;;;18.10;99.90;;;;;;5057481;28;20557;-81
2022/05/19 03:51:40;;;;;;;1.17;0.70;;;18.10;99.90;;;;;;5040259;28;20194;-81
2022/05/19 03:54:06;;;;;;;0.50;0.50;;;18.10;99.90;;;;;;5059007;28;20268;-81
2022/05/19 03:56:32;;;;;;;0.83;0.80;;;18.20;99.90;;;;;;5057265;28;20297;-81
2022/05/19 03:58:58;;;;;;;0.40;0.40;;;18.40;99.90;;;;;;5029956;28;20273;-81
2022/05/19 04:01:23;;;;;;;0.40;0.40;;;18.60;99.90;;;;;;5055591;28;20645;-81
2022/05/19 04:03:49;;;;;;;2.70;0.90;;;18.70;99.90;;;;;;5058105;28;20274;-81
2022/05/19 04:06:17;;;;;;;0.47;0.47;;;18.80;99.90;;;;;;5056668;28;20209;-81
2022/05/19 04:08:43;;;;;;;0.30;0.30;;;18.90;99.90;;;;;;5036782;28;20219;-81
2022/05/19 04:11:08;;;;;;;0.53;0.53;;;19.10;99.90;;;;;;5056231;28;20196;-81
2022/05/19 04:13:34;;;;;;;0.50;0.50;;;19.10;99.90;;;;;;5040601;28;20666;-82
2022/05/19 04:15:59;;;;;;;0.30;0.30;;;19.20;99.90;;;;;;5056256;28;20248;-81
2022/05/19 04:18:25;;;;;;;0.57;0.40;;;19.20;99.90;;;;;;5040429;28;20220;-81
2022/05/19 04:20:50;;;;;;;0.60;0.60;;;19.20;99.90;;;;;;5038971;28;20712;-81
2022/05/19 04:23:17;;;;;;;0.40;0.40;;;19.00;99.90;;;;;;5041958;28;20692;-81
2022/05/19 04:25:43;;;;;;;0.40;0.40;;;18.90;99.90;;;;;;5041325;28;20209;-81
2022/05/19 04:28:09;;;;;;;0.50;0.50;;;19.20;99.90;;;;;;5058169;28;20684;-81
2022/05/19 04:30:35;;;;;;;0.30;0.30;;;19.30;99.90;;;;;;5039418;28;20189;-81
2022/05/19 04:33:00;;;;;;;0.67;0.67;;;19.40;99.90;;;;;;5041335;28;20216;-82
2022/05/19 04:35:26;;;;;;;0.50;0.50;;;19.40;99.90;;;;;;5037766;28;20707;-82
2022/05/19 04:37:51;;;;;;;0.60;0.53;;;19.50;99.90;;;;;;5055404;28;20190;-81
2022/05/19 04:40:18;;;;;;;0.83;0.30;;;19.50;99.90;;;;;;5053280;28;20202;-82
2022/05/19 04:42:44;;;;;;;0.57;0.57;;;19.70;99.90;;;;;;5034880;28;20234;-82
2022/05/19 04:45:12;;;;;;;1.57;0.90;;;19.80;99.90;;;;;;5055191;28;20374;-82
2022/05/19 04:47:38;;;;;;;0.60;0.40;;;19.60;99.90;;;;;;5055124;28;20216;-82
2022/05/19 04:50:05;;;;;;;0.80;0.70;;;19.50;99.90;;;;;;5035427;28;20276;-82
2022/05/19 04:52:30;;;;;;;0.63;0.53;;;19.20;99.90;;;;;;5036520;28;20192;-81
2022/05/19 04:54:56;;;;;;;0.73;0.53;;;19.00;99.90;;;;;;5053347;28;20205;-81
2022/05/19 04:57:21;;;;;;;0.63;0.63;;;19.00;99.90;;;;;;5035465;28;20202;-82
2022/05/19 04:59:47;;;;;;;0.67;0.67;;;19.00;99.90;;;;;;5058798;28;20200;-83
2022/05/19 05:02:13;;;;;;;0.83;0.57;;;19.20;99.90;;;;;;5033768;28;20232;-82
2022/05/19 05:04:39;;;;;;;0.80;0.80;;;19.40;99.90;;;;;;5053241;28;20266;-83
2022/05/19 05:07:05;;;;;;;0.20;0.20;;;19.70;99.90;;;;;;5050304;28;20223;-81
2022/05/19 05:09:31;;;;;;;0.60;0.50;;;19.70;99.90;;;;;;5054322;28;20796;-83
2022/05/19 05:11:57;;;;;;;0.50;0.40;;;19.80;99.90;;;;;;5055514;28;20185;-82
2022/05/19 05:14:23;;;;;;;0.60;0.60;;;20.00;99.90;;;;;;5035201;28;20266;-81
2022/05/19 05:16:50;;;;;;;0.63;0.63;;;19.80;99.90;;;;;;5053695;28;20616;-81
2022/05/19 05:19:22;;;;;;;0.37;0.37;;;19.90;99.90;;;;;;5034954;28;20235;-81
2022/05/19 05:21:49;;;;;;;0.30;0.30;;;20.00;99.90;;;;;;5052197;28;20185;-81
2022/05/19 05:24:15;;;;;;;0.43;0.43;;;20.30;99.90;;;;;;5039130;28;20208;-81
2022/05/19 05:26:41;;;;;;;0.77;0.60;;;20.30;99.90;;;;;;5055348;28;20208;-81
2022/05/19 05:29:07;;;;;;;0.30;0.30;;;20.50;99.90;;;;;;5069973;28;20190;-82
2022/05/19 05:31:33;;;;;;;0.30;0.30;;;20.80;99.90;;;;;;5035154;28;21993;-81
2022/05/19 05:33:58;;;;;;;0.40;0.40;;;21.00;99.90;;;;;;5052921;28;20343;-82
2022/05/19 05:36:24;;;;;;;0.60;0.60;;;20.70;99.90;;;;;;5063844;28;20308;-81
2022/05/19 05:38:49;;;;;;;0.87;0.87;;;20.60;99.90;;;;;;5035156;28;20190;-82
2022/05/19 05:41:15;;;;;;;1.17;0.93;;;20.70;99.90;;;;;;5037733;28;20197;-81
2022/05/19 05:43:41;;;;;;;0.60;0.60;;;20.60;99.90;;;;;;5035374;28;20272;-81
2022/05/19 05:46:14;;;;;;;0.40;0.40;;;20.70;99.90;;;;;;5055013;28;20351;-81
2022/05/19 05:48:40;;;;;;;0.50;0.50;;;20.80;99.90;;;;;;5053358;28;20185;-81
2022/05/19 05:51:07;;;;;;;1.03;0.63;;;20.90;99.90;;;;;;5055319;28;20197;-81
2022/05/19 05:53:34;;;;;;;0.70;0.70;;;20.90;99.90;;;;;;5033754;28;20216;-82
2022/05/19 05:56:00;;;;;;;0.50;0.50;;;20.90;99.90;;;;;;5050618;28;20227;-81
2022/05/19 05:58:26;;;;;;;0.63;0.63;;;20.90;99.90;;;;;;5035371;28;20189;-81
2022/05/19 06:00:52;;;;;;;1.10;1.07;;;20.90;99.90;;;;;;5034158;28;20185;-81
2022/05/19 06:03:18;;;;;;;0.43;0.43;;;20.90;99.90;;;;;;5035032;28;20189;-81
2022/05/19 06:05:43;;;;;;;0.87;0.70;;;21.00;99.90;;;;;;5053417;28;20209;-81
2022/05/19 06:08:09;;;;;;;0.50;0.50;;;21.00;99.90;;;;;;5037307;28;20714;-81
2022/05/19 06:10:35;;;;;;;0.60;0.60;;;21.20;99.90;;;;;;5054150;28;20183;-81
2022/05/19 06:13:00;;;;;;;0.70;0.70;;;21.40;99.90;;;;;;5053236;28;20556;-81
2022/05/19 06:15:26;;;;;;;0.60;0.60;;;21.70;99.90;;;;;;5034098;28;20208;-81
2022/05/19 06:17:52;;;;;;;0.50;0.47;;;21.90;99.90;;;;;;5040488;28;20190;-81
2022/05/19 06:20:18;;;;;;;0.43;0.43;;;22.20;99.90;;;;;;5035734;28;20189;-81
2022/05/19 06:22:46;;;;;;;0.93;0.87;;;22.30;99.90;;;;;;5053406;28;20181;-81
2022/05/19 06:25:14;;;;;;;0.63;0.63;;;22.00;99.90;;;;;;5055291;28;20658;-81
2022/05/19 06:27:39;;;;;;;0.90;0.50;;;21.90;99.90;;;;;;5035881;28;20181;-81
2022/05/19 06:30:07;;;;;;;0.43;0.43;;;22.00;99.90;;;;;;5034667;28;20667;-81
2022/05/19 06:32:34;;;;;;;0.50;0.50;;;22.20;99.90;;;;;;5031746;28;20715;-82
2022/05/19 06:34:59;;;;;;;0.63;0.63;;;21.90;99.90;;;;;;5030552;28;20865;-81
2022/05/19 06:37:25;;;;;;;0.77;0.60;;;22.00;99.90;;;;;;5032708;28;20198;-82
2022/05/19 06:39:50;;;;;;;0.57;0.53;;;22.20;99.90;;;;;;5052627;28;20189;-82
2022/05/19 06:42:16;;;;;;;0.50;0.50;;;22.70;99.90;;;;;;5031180;28;20178;-81
2022/05/19 06:44:43;;;;;;;0.90;0.80;;;22.70;99.90;;;;;;5031800;28;20196;-81
2022/05/19 06:47:14;;;;;;;0.30;0.30;;;22.80;99.90;;;;;;5053879;28;20209;-81
2022/05/19 06:49:46;;;;;;;0.50;0.50;;;22.60;99.90;;;;;;5066699;28;20177;-81
2022/05/19 06:52:17;;;;;;;0.50;0.50;;;22.90;99.90;;;;;;5054628;28;20197;-81
2022/05/19 06:54:47;;;;;;;1.07;1.00;;;23.20;99.90;;;;;;5054653;28;20178;-81
2022/05/19 06:57:13;;;;;;;0.40;0.40;;;23.10;99.90;;;;;;5035779;28;20549;-81
2022/05/19 06:59:39;;;;;;;0.97;0.70;;;23.40;99.90;;;;;;5053270;28;20200;-81
2022/05/19 07:02:05;;;;;;;0.87;0.87;;;23.60;99.90;;;;;;5035006;28;20182;-82
2022/05/19 07:04:32;;;;;;;3.33;2.33;;;23.70;99.90;;;;;;5030731;28;20186;-84
2022/05/19 07:06:57;;;;;;;0.43;0.43;;;23.30;99.90;;;;;;5051492;28;20210;-81
2022/05/19 07:09:23;;;;;;;1.60;1.33;;;23.10;99.90;;;;;;5050193;28;20273;-81
2022/05/19 07:11:49;;;;;;;0.83;0.80;;;23.20;99.90;;;;;;5053653;28;20208;-81
2022/05/19 07:14:15;;;;;;;0.90;0.80;;;23.60;99.90;;;;;;5052275;28;20192;-81
2022/05/19 07:16:43;;;;;;;0.67;0.67;;;24.10;99.90;;;;;;5034188;28;20266;-81
2022/05/19 07:21:54;;;;;;;0.80;0.73;;;24.50;99.90;;;;;;5059338;28;20192;-81
2022/05/19 07:24:21;;;;;;;0.20;0.20;;;24.90;99.90;;;;;;5055732;28;20185;-81
2022/05/19 07:26:50;;;;;;;0.50;0.50;;;24.40;99.90;;;;;;5040463;28;20743;-81
2022/05/19 07:29:18;;;;;;;0.67;0.53;;;24.60;99.90;;;;;;5039974;28;20217;-81
2022/05/19 07:31:44;;;;;;;0.50;0.50;;;24.90;99.90;;;;;;5054576;28;20704;-81
2022/05/19 07:34:11;;;;;;;0.67;0.67;;;25.00;99.90;;;;;;5032149;28;20227;-81
2022/05/19 07:36:37;;;;;;;3.23;0.77;;;25.20;99.90;;;;;;5029982;28;20221;-81
2022/05/19 07:39:03;;;;;;;0.67;0.67;;;24.60;99.90;;;;;;5028995;28;20851;-81
2022/05/19 07:41:30;;;;;;;0.87;0.50;;;24.10;99.90;;;;;;5041439;28;20194;-82
2022/05/19 07:43:57;;;;;;;0.67;0.67;;;24.50;99.90;;;;;;5050673;28;20221;-81
2022/05/19 07:46:25;;;;;;;0.47;0.47;;;24.80;99.90;;;;;;5049100;28;20202;-81
2022/05/19 07:48:54;;;;;;;0.57;0.57;;;24.30;99.90;;;;;;5036743;28;20287;-81
2022/05/19 07:51:20;;;;;;;1.30;0.80;;;24.80;99.90;;;;;;5069656;28;20201;-81
2022/05/19 07:53:46;;;;;;;0.50;0.50;;;24.30;99.90;;;;;;5055057;28;20197;-81
2022/05/19 07:56:11;;;;;;;0.83;0.83;;;24.10;99.90;;;;;;5037678;28;20218;-80
2022/05/19 07:58:37;;;;;;;1.63;0.67;;;24.70;99.90;;;;;;5058789;28;20186;-81
2022/05/19 08:01:03;;;;;;;0.60;0.60;;;25.20;99.90;;;;;;5056561;28;20188;-81
2022/05/19 08:03:29;;;;;;;0.70;0.70;;;25.20;99.90;;;;;;5036826;28;20193;-82
2022/05/19 08:05:55;;;;;;;0.47;0.47;;;25.70;99.90;;;;;;5059155;28;20212;-81
2022/05/19 08:08:20;;;;;;;0.37;0.37;;;24.90;99.90;;;;;;5056263;28;20202;-81
2022/05/19 08:10:46;;;;;;;0.63;0.63;;;24.90;99.90;;;;;;5054150;28;20193;-82
2022/05/19 08:15:56;;;;;;;0.40;0.40;;;25.00;99.90;;;;;;5053893;28;20227;-80
2022/05/19 08:18:23;;;;;;;1.83;0.80;;;25.40;99.90;;;;;;5033289;28;20182;-82
2022/05/19 08:20:54;;;;;;;1.70;0.77;;;24.30;99.90;;;;;;5052264;28;20188;-81
2022/05/19 08:23:23;;;;;;;0.40;0.40;;;24.50;99.90;;;;;;5035748;28;20234;-81
2022/05/19 08:25:49;;;;;;;0.77;0.40;;;25.00;99.90;;;;;;5051854;28;20735;-81
2022/05/19 08:28:17;;;;;;;0.40;0.40;;;25.20;99.90;;;;;;5038154;28;20927;-81
2022/05/19 08:30:47;;;;;;;0.60;0.60;;;25.40;99.90;;;;;;5051651;28;20232;-81
2022/05/19 08:33:18;;;;;;;1.27;0.77;;;25.80;99.90;;;;;;5052832;28;20194;-81
2022/05/19 08:35:44;;;;;;;1.97;1.17;;;26.00;99.90;;;;;;5033109;28;20220;-81
2022/05/19 08:38:10;;;;;;;0.80;0.80;;;25.90;99.90;;;;;;5049746;28;20182;-81
2022/05/19 08:40:40;;;;;;;0.93;0.80;;;26.20;99.90;;;;;;5034001;28;21094;-81
2022/05/19 08:43:08;;;;;;;0.43;0.43;;;26.10;99.90;;;;;;5055903;28;20185;-81
2022/05/19 08:45:43;;;;;;;1.63;0.70;;;26.30;99.90;;;;;;5068393;28;20342;-81
2022/05/19 08:48:13;;;;;;;1.13;0.83;;;26.70;99.90;;;;;;5032431;28;20193;-82
2022/05/19 08:51:07;;;;;;;0.73;0.70;;;26.70;99.90;;;;;;5053831;28;20757;-82
2022/05/19 08:53:39;;;;;;;0.73;0.60;;;26.90;99.90;;;;;;5032486;28;20251;-81
2022/05/19 08:56:25;;;;;;;0.50;0.50;;;27.10;99.90;;;;;;5034826;28;20702;-82
2022/05/19 08:59:28;;;;;;;0.80;0.80;;;27.00;99.90;;;;;;5049953;28;20677;-81
2022/05/19 09:02:01;;;;;;;0.80;0.80;;;27.50;99.90;;;;;;5049551;28;20189;-81
2022/05/19 09:04:39;;;;;;;0.50;0.50;;;27.90;99.90;;;;;;5047643;28;20187;-81
2022/05/19 09:10:25;;;;;;;0.63;0.57;;;28.20;99.90;;;;;;5052820;28;20197;-81
2022/05/19 09:12:59;;;;;;;0.50;0.50;;;28.60;99.90;;;;;;5036388;28;20526;-81
2022/05/19 09:15:24;;;;;;;3.72;1.02;;;28.70;99.90;;;;;;5033690;28;20318;-82
2022/05/19 09:17:50;;;;;;;0.65;0.63;;;27.90;99.90;;;;;;5052586;28;20717;-81
2022/05/19 09:20:34;;;;;;;0.50;0.50;;;28.00;99.90;;;;;;5055025;28;20244;-82
2022/05/19 09:23:04;;;;;;;0.75;0.73;;;28.10;99.90;;;;;;5031777;28;20191;-81
2022/05/19 09:25:30;;;;;;;1.45;0.60;;;27.90;99.90;;;;;;5050053;28;20729;-81
2022/05/19 09:27:59;;;;;;;0.50;0.50;;;28.20;99.90;;;;;;5035426;28;20207;-82
2022/05/19 09:30:48;;;;;;;0.88;0.50;;;28.20;99.90;;;;;;5052668;28;20204;-81
2022/05/19 09:33:19;;;;;;;1.00;0.70;;;27.70;99.90;;;;;;5063863;28;20243;-82
2022/05/19 09:35:50;;;;;;;1.77;0.80;;;28.30;99.90;;;;;;5051329;28;20219;-81
2022/05/19 09:38:44;;;;;;;1.05;0.75;;;28.80;99.90;;;;;;5034759;28;20227;-82
2022/05/19 09:41:40;;;;;;;0.90;0.63;;;29.00;99.90;;;;;;5055186;28;20173;-81
2022/05/19 09:44:12;;;;;;;0.80;0.75;;;27.50;99.90;;;;;;5026993;28;20193;-81
2022/05/19 09:46:44;;;;;;;1.00;1.00;;;28.40;99.90;;;;;;5048932;28;20678;-81
2022/05/19 09:49:32;;;;;;;0.63;0.63;;;28.80;99.90;;;;;;5067884;28;20267;-81
2022/05/19 09:52:04;;;;;;;0.73;0.73;;;28.30;99.90;;;;;;5034052;28;20181;-81
2022/05/19 09:54:31;;;;;;;0.47;0.47;;;29.10;99.90;;;;;;5052989;28;20186;-81
2022/05/19 09:57:09;;;;;;;0.70;0.70;;;29.40;99.90;;;;;;5053916;28;20686;-81
2022/05/19 09:59:49;;;;;;;0.70;0.70;;;29.60;99.90;;;;;;5053578;28;20181;-81
2022/05/19 10:02:21;;;;;;;0.50;0.50;;;28.70;99.90;;;;;;5033594;28;20205;-81
2022/05/19 10:04:58;;;;;;;0.45;0.45;;;29.60;99.90;;;;;;5051297;28;20795;-84
2022/05/19 10:07:27;;;;;;;0.47;0.47;;;29.70;99.90;;;;;;5034851;28;20208;-82
2022/05/19 10:09:56;;;;;;;0.63;0.63;;;30.30;99.90;;;;;;5034329;28;20201;-82
2022/05/19 10:12:28;;;;;;;2.95;1.00;;;30.40;99.90;;;;;;5035293;28;20185;-82
2022/05/19 10:15:10;;;;;;;0.77;0.77;;;29.00;99.90;;;;;;5032224;28;20231;-82
2022/05/19 10:18:01;;;;;;;0.88;0.88;;;29.30;99.90;;;;;;5033399;28;20178;-82
2022/05/19 10:20:31;;;;;;;0.47;0.47;;;28.90;99.90;;;;;;5035584;28;20173;-82
2022/05/19 10:23:03;;;;;;;3.63;0.68;;;29.60;99.90;;;;;;5033741;28;20178;-82
2022/05/19 10:25:56;;;;;;;0.50;0.50;;;29.90;99.90;;;;;;5050979;28;20549;-82
2022/05/19 10:32:22;;;;;;;0.85;0.77;;;29.50;99.90;;;;;;5050871;28;20180;-82
2022/05/19 10:35:01;;;;;;;0.93;0.80;;;29.10;99.90;;;;;;5053665;28;20227;-82
2022/05/19 10:37:56;;;;;;;1.10;1.00;;;28.30;99.90;;;;;;5069817;28;20205;-82
2022/05/19 10:40:45;;;;;;;0.73;0.63;;;28.00;99.90;;;;;;5053541;28;20178;-82
2022/05/19 10:43:16;;;;;;;0.80;0.80;;;28.40;99.90;;;;;;5052164;28;20182;-82
2022/05/19 10:45:47;;;;;;;0.50;0.50;;;28.60;99.90;;;;;;5032915;28;20682;-82
2022/05/19 10:48:41;;;;;;;1.40;0.68;;;28.60;99.90;;;;;;5053762;28;20188;-81
2022/05/19 10:51:13;;;;;;;0.95;0.73;;;28.20;99.90;;;;;;5055475;28;20189;-81
2022/05/19 10:53:49;;;;;;;1.13;1.02;;;27.90;99.90;;;;;;5054206;28;20199;-82
2022/05/19 10:56:42;;;;;;;0.60;0.60;;;28.50;99.90;;;;;;5058666;28;20501;-82
2022/05/19 10:59:24;;;;;;;0.63;0.63;;;28.30;99.90;;;;;;5035046;28;20190;-81
2022/05/19 11:02:16;;;;;;;0.63;0.63;;;28.20;99.90;;;;;;5056640;28;20312;-81
2022/05/19 11:05:04;;;;;;;0.80;0.80;;;28.70;99.90;;;;;;5058850;28;20254;-81
2022/05/19 11:07:33;;;;;;;0.57;0.57;;;29.00;99.90;;;;;;5055243;28;20959;-81
2022/05/19 11:10:39;;;;;;;4.13;1.17;;;29.00;99.90;;;;;;5036505;28;20197;-82
2022/05/19 11:13:43;;;;;;;3.95;1.20;;;28.60;99.90;;;;;;5072768;28;20170;-81
2022/05/19 11:16:41;;;;;;;1.08;0.95;;;28.60;99.90;;;;;;5067833;28;20319;-82
2022/05/19 11:19:39;;;;;;;1.75;1.02;;;28.80;99.90;;;;;;5072941;28;20313;-82
2022/05/19 11:22:16;;;;;;;0.93;0.90;;;29.20;99.90;;;;;;5027331;28;20189;-81
2022/05/19 11:28:06;;;;;;;0.82;0.70;;;28.60;99.90;;;;;;5057095;28;20308;-82
2022/05/19 11:30:45;;;;;;;0.70;0.70;;;29.30;99.90;;;;;;5052694;28;20899;-82
2022/05/19 11:33:23;;;;;;;0.63;0.63;;;29.60;99.90;;;;;;5052408;28;20177;-82
2022/05/19 11:36:03;;;;;;;1.65;0.90;;;30.10;99.90;;;;;;5052982;28;20220;-82
2022/05/19 11:38:41;;;;;;;0.90;0.90;;;30.60;99.90;;;;;;5041855;28;20181;-82
2022/05/19 11:41:16;;;;;;;1.05;0.93;;;30.90;99.90;;;;;;5036203;28;20655;-82
2022/05/19 11:43:56;;;;;;;1.05;0.93;;;31.40;99.90;;;;;;5049391;28;20180;-81
2022/05/19 11:46:28;;;;;;;1.25;1.23;;;31.40;99.90;;;;;;5050520;28;20202;-82
2022/05/19 11:55:19;;;;;;;1.08;1.08;;;30.30;99.90;;;;;;5054195;28;20939;-81
2022/05/19 11:58:00;;;;;;;0.70;0.70;;;29.90;99.90;;;;;;5055866;28;20172;-82
2022/05/19 12:00:29;;;;;;;1.10;0.98;;;29.50;99.90;;;;;;5051465;28;20216;-82
2022/05/19 12:03:23;;;;;;;0.57;0.57;;;29.70;99.90;;;;;;5051271;28;20278;-82
2022/05/19 12:06:13;;;;;;;3.60;1.20;;;29.60;99.90;;;;;;5033242;28;20213;-82
2022/05/19 12:08:55;;;;;;;0.80;0.80;;;30.00;99.90;;;;;;5034931;28;20201;-82
2022/05/19 12:11:36;;;;;;;0.85;0.77;;;30.20;99.90;;;;;;5054117;28;20647;-82
2022/05/19 12:14:10;;;;;;;0.70;0.70;;;30.20;99.90;;;;;;5036151;28;20873;-82
2022/05/19 12:16:59;;;;;;;0.90;0.90;;;30.20;99.90;;;;;;5055909;28;20208;-82
2022/05/19 12:19:36;;;;;;;0.85;0.85;;;30.60;99.90;;;;;;5056777;28;20182;-82
2022/05/19 12:22:29;;;;;;;0.77;0.60;;;31.00;99.90;;;;;;5058124;28;20177;-82
2022/05/19 12:25:14;;;;;;;0.98;0.98;;;31.40;99.90;;;;;;5057495;28;20708;-82
2022/05/19 12:28:14;;;;;;;0.98;0.90;;;30.70;99.90;;;;;;5056835;28;20177;-82
2022/05/19 12:33:51;;;;;;;0.82;0.82;;;31.20;99.90;;;;;;5055877;28;20394;-82
2022/05/19 12:36:35;;;;;;;1.13;1.10;;;32.20;99.90;;;;;;5056032;28;20304;-82
2022/05/19 12:39:08;;;;;;;1.38;0.88;;;32.10;99.90;;;;;;5055996;28;20220;-82
2022/05/19 12:41:40;;;;;;;1.55;1.20;;;31.50;99.90;;;;;;5056696;28;20638;-82
2022/05/19 12:44:30;;;;;;;1.77;0.90;;;31.10;99.90;;;;;;5055942;28;20259;-82
2022/05/19 12:47:12;;;;;;;2.13;0.85;;;31.30;99.90;;;;;;5039017;28;20202;-82
2022/05/19 12:49:39;;;;;;;0.88;0.80;;;31.70;99.90;;;;;;5055577;28;20252;-82
2022/05/19 12:52:19;;;;;;;3.30;1.00;;;31.90;99.90;;;;;;5055055;28;20185;-82
2022/05/19 12:55:16;;;;;;;1.20;1.20;;;31.90;99.90;;;;;;5057013;28;20905;-82
2022/05/19 12:57:42;;;;;;;1.38;1.10;;;32.00;99.90;;;;;;5055556;28;20551;-82
2022/05/19 13:00:35;;;;;;;0.80;0.80;;;32.20;99.90;;;;;;5059143;28;20189;-82
2022/05/19 13:03:07;;;;;;;0.55;0.55;;;32.00;99.90;;;;;;5045780;28;20659;-82
2022/05/19 13:05:45;;;;;;;0.68;0.68;;;32.10;99.90;;;;;;5037509;28;20232;-81
2022/05/19 13:08:30;;;;;;;0.90;0.90;;;32.20;99.90;;;;;;5056645;28;20712;-82
2022/05/19 13:10:58;;;;;;;0.75;0.63;;;32.50;99.90;;;;;;5056451;28;20173;-82
2022/05/19 13:13:32;;;;;;;1.08;1.08;;;32.50;99.90;;;;;;5063364;28;20181;-82
2022/05/19 13:15:59;;;;;;;0.73;0.73;;;32.60;99.90;;;;;;5070186;28;20221;-83
2022/05/19 13:18:33;;;;;;;1.30;1.25;;;32.70;99.90;;;;;;5050897;28;20197;-82
2022/05/19 13:21:04;;;;;;;10.85;4.45;;;32.70;99.90;;;;;;5069671;28;20229;-82
2022/05/19 13:23:31;;;;;;;1.33;1.10;;;32.70;99.90;;;;;;5059398;28;20197;-82
2022/05/19 13:26:04;;;;;;;0.85;0.85;;;32.60;99.90;;;;;;5056037;28;20267;-82
2022/05/19 13:31:26;;;;;;;1.77;0.93;;;32.30;99.90;;;;;;5056313;28;20599;-83
2022/05/19 13:33:56;;;;;;;1.58;1.48;;;32.60;99.90;;;;;;5056457;28;20181;-82
2022/05/19 13:36:31;;;;;;;0.77;0.77;;;32.80;99.90;;;;;;5038041;28;20221;-82
2022/05/19 13:39:08;;;;;;;1.63;1.20;;;33.00;99.90;;;;;;5039492;28;20188;-82